KOEO/OEO METAR and TAF weather

Enter ICAO airport designator
Station Type Date Time Source
KOEO METAR 2022/01/25 03:55 UTC NOAA

KOEO 250355Z AUTO 29005KT 10SM CLR M17/M21 A3014 RMK AO2 T11751210 PWINO


Station Type Date Time Source
KOEO Decoded METAR 2022/01/25 03:55 UTC NOAA

Osceola, L O Simenstad Municipal Airport, WI, United States (KOEO) 45-18-31N 092-41-24W
Jan 24, 2022 - 10:55 PM EST / 2022.01.25 0355 UTC
Wind: from the WNW (290 degrees) at 6 MPH (5 KT):0
Visibility: 10 mile(s):0
Sky conditions: clear
Temperature: 0.5 F (-17.5 C)
Windchill: -11 F (-24 C):2
Dew Point: -5.8 F (-21.0 C)
Relative Humidity: 74%
Pressure (altimeter): 30.14 in. Hg (1020 hPa)
ob: KOEO 250355Z AUTO 29005KT 10SM CLR M17/M21 A3014 RMK AO2 T11751210 PWINO
cycle: 4

Station Type Date Time Source
KOEO TAF UTC NOAA

Error!

Example: see airport list